sensor_id;sensor_type;location;lat;lon;timestamp;P1;durP1;ratioP1;P2;durP2;ratioP2
26838;SDS011;40088;51.214;6.786;2023-03-01T00:04:47;4.00;;;3.20;;
26838;SDS011;40088;51.214;6.786;2023-03-01T00:14:56;4.15;;;3.00;;
26838;SDS011;40088;51.214;6.786;2023-03-01T00:25:05;4.70;;;3.30;;
26838;SDS011;40088;51.214;6.786;2023-03-01T00:35:11;4.32;;;3.35;;
26838;SDS011;40088;51.214;6.786;2023-03-01T00:45:17;4.22;;;3.17;;
26838;SDS011;40088;51.214;6.786;2023-03-01T01:47:06;3.88;;;3.13;;
26838;SDS011;40088;51.214;6.786;2023-03-01T01:57:20;4.18;;;3.47;;
26838;SDS011;40088;51.214;6.786;2023-03-01T02:38:00;4.68;;;3.83;;
26838;SDS011;40088;51.214;6.786;2023-03-01T02:48:04;5.22;;;3.50;;
26838;SDS011;40088;51.214;6.786;2023-03-01T03:08:29;4.40;;;3.55;;
26838;SDS011;40088;51.214;6.786;2023-03-01T03:18:36;5.20;;;4.07;;
26838;SDS011;40088;51.214;6.786;2023-03-01T03:28:41;5.00;;;3.42;;
26838;SDS011;40088;51.214;6.786;2023-03-01T03:38:44;6.43;;;4.07;;
26838;SDS011;40088;51.214;6.786;2023-03-01T03:48:59;4.60;;;3.72;;
26838;SDS011;40088;51.214;6.786;2023-03-01T04:09:11;5.75;;;3.95;;
26838;SDS011;40088;51.214;6.786;2023-03-01T04:40:43;4.30;;;3.80;;
26838;SDS011;40088;51.214;6.786;2023-03-01T05:01:53;5.38;;;3.67;;
26838;SDS011;40088;51.214;6.786;2023-03-01T05:11:59;5.50;;;3.75;;
26838;SDS011;40088;51.214;6.786;2023-03-01T05:22:12;5.23;;;4.27;;
26838;SDS011;40088;51.214;6.786;2023-03-01T05:32:19;4.35;;;3.78;;
26838;SDS011;40088;51.214;6.786;2023-03-01T05:42:32;5.77;;;3.57;;
26838;SDS011;40088;51.214;6.786;2023-03-01T05:52:56;3.80;;;3.40;;
26838;SDS011;40088;51.214;6.786;2023-03-01T06:13:19;5.72;;;4.07;;
26838;SDS011;40088;51.214;6.786;2023-03-01T06:23:31;5.30;;;4.07;;
26838;SDS011;40088;51.214;6.786;2023-03-01T06:33:40;6.78;;;4.00;;
26838;SDS011;40088;51.214;6.786;2023-03-01T06:43:44;6.18;;;4.30;;
26838;SDS011;40088;51.214;6.786;2023-03-01T06:53:48;4.97;;;3.80;;
26838;SDS011;40088;51.214;6.786;2023-03-01T07:14:06;4.90;;;3.80;;
26838;SDS011;40088;51.214;6.786;2023-03-01T07:24:10;6.00;;;4.55;;
26838;SDS011;40088;51.214;6.786;2023-03-01T07:34:15;5.28;;;3.92;;
26838;SDS011;40088;51.214;6.786;2023-03-01T07:44:22;6.07;;;4.40;;
26838;SDS011;40088;51.214;6.786;2023-03-01T07:54:29;7.07;;;4.63;;
26838;SDS011;40088;51.214;6.786;2023-03-01T08:14:43;5.78;;;4.22;;
26838;SDS011;40088;51.214;6.786;2023-03-01T08:24:48;6.47;;;4.45;;
26838;SDS011;40088;51.214;6.786;2023-03-01T08:35:09;6.15;;;4.03;;
26838;SDS011;40088;51.214;6.786;2023-03-01T08:45:20;7.10;;;5.00;;
26838;SDS011;40088;51.214;6.786;2023-03-01T09:36:25;6.85;;;4.95;;
26838;SDS011;40088;51.214;6.786;2023-03-01T09:46:35;5.45;;;4.45;;
26838;SDS011;40088;51.214;6.786;2023-03-01T09:56:52;6.00;;;4.43;;
26838;SDS011;40088;51.214;6.786;2023-03-01T10:27:22;6.72;;;4.95;;
26838;SDS011;40088;51.214;6.786;2023-03-01T10:37:26;5.78;;;4.05;;
26838;SDS011;40088;51.214;6.786;2023-03-01T10:57:49;7.05;;;4.70;;
26838;SDS011;40088;51.214;6.786;2023-03-01T11:40:42;5.85;;;4.50;;
26838;SDS011;40088;51.214;6.786;2023-03-01T12:21:49;7.28;;;4.38;;
26838;SDS011;40088;51.214;6.786;2023-03-01T12:32:20;6.47;;;4.40;;
26838;SDS011;40088;51.214;6.786;2023-03-01T13:03:19;4.85;;;3.85;;
26838;SDS011;40088;51.214;6.786;2023-03-01T13:23:47;4.85;;;3.75;;
26838;SDS011;40088;51.214;6.786;2023-03-01T15:05:42;6.40;;;3.95;;
26838;SDS011;40088;51.214;6.786;2023-03-01T15:16:11;4.70;;;3.63;;
26838;SDS011;40088;51.214;6.786;2023-03-01T15:26:35;4.57;;;3.40;;
26838;SDS011;40088;51.214;6.786;2023-03-01T15:36:45;4.35;;;3.38;;
26838;SDS011;40088;51.214;6.786;2023-03-01T15:46:51;3.67;;;3.20;;
26838;SDS011;40088;51.214;6.786;2023-03-01T15:56:57;3.65;;;3.20;;
26838;SDS011;40088;51.214;6.786;2023-03-01T16:07:04;4.93;;;3.55;;
26838;SDS011;40088;51.214;6.786;2023-03-01T16:17:18;4.57;;;3.45;;
26838;SDS011;40088;51.214;6.786;2023-03-01T16:27:24;3.97;;;3.20;;
26838;SDS011;40088;51.214;6.786;2023-03-01T16:37:31;6.35;;;4.10;;
26838;SDS011;40088;51.214;6.786;2023-03-01T16:47:45;5.68;;;3.85;;
26838;SDS011;40088;51.214;6.786;2023-03-01T17:08:10;4.25;;;3.75;;
26838;SDS011;40088;51.214;6.786;2023-03-01T17:18:18;4.63;;;3.70;;
26838;SDS011;40088;51.214;6.786;2023-03-01T17:28:26;4.07;;;3.30;;
26838;SDS011;40088;51.214;6.786;2023-03-01T17:38:31;4.95;;;3.20;;
26838;SDS011;40088;51.214;6.786;2023-03-01T17:48:36;4.20;;;3.30;;
26838;SDS011;40088;51.214;6.786;2023-03-01T17:58:45;4.55;;;3.30;;
26838;SDS011;40088;51.214;6.786;2023-03-01T18:08:50;6.60;;;3.50;;
26838;SDS011;40088;51.214;6.786;2023-03-01T18:18:55;4.43;;;3.50;;
26838;SDS011;40088;51.214;6.786;2023-03-01T18:29:02;4.03;;;3.20;;
26838;SDS011;40088;51.214;6.786;2023-03-01T18:39:10;3.38;;;3.03;;
26838;SDS011;40088;51.214;6.786;2023-03-01T18:49:47;5.03;;;3.58;;
26838;SDS011;40088;51.214;6.786;2023-03-01T19:00:07;4.68;;;3.45;;
26838;SDS011;40088;51.214;6.786;2023-03-01T19:10:17;4.93;;;3.80;;
26838;SDS011;40088;51.214;6.786;2023-03-01T19:20:24;5.47;;;4.00;;
26838;SDS011;40088;51.214;6.786;2023-03-01T19:40:45;5.40;;;3.53;;
26838;SDS011;40088;51.214;6.786;2023-03-01T19:51:01;5.28;;;3.50;;
26838;SDS011;40088;51.214;6.786;2023-03-01T20:11:48;4.93;;;3.85;;
26838;SDS011;40088;51.214;6.786;2023-03-01T20:22:00;4.63;;;3.60;;
26838;SDS011;40088;51.214;6.786;2023-03-01T20:32:08;4.88;;;4.13;;
26838;SDS011;40088;51.214;6.786;2023-03-01T20:42:13;4.47;;;3.70;;
26838;SDS011;40088;51.214;6.786;2023-03-01T20:52:22;5.55;;;3.80;;
26838;SDS011;40088;51.214;6.786;2023-03-01T21:02:39;7.22;;;4.30;;
26838;SDS011;40088;51.214;6.786;2023-03-01T21:12:59;6.03;;;4.05;;
26838;SDS011;40088;51.214;6.786;2023-03-01T22:04:24;5.53;;;4.90;;
26838;SDS011;40088;51.214;6.786;2023-03-01T22:14:31;5.20;;;4.30;;
26838;SDS011;40088;51.214;6.786;2023-03-01T22:24:33;4.80;;;4.30;;
26838;SDS011;40088;51.214;6.786;2023-03-01T22:34:39;6.80;;;4.65;;
26838;SDS011;40088;51.214;6.786;2023-03-01T22:55:54;5.63;;;4.03;;
26838;SDS011;40088;51.214;6.786;2023-03-01T23:06:34;6.40;;;4.13;;
26838;SDS011;40088;51.214;6.786;2023-03-01T23:27:07;5.10;;;3.88;;
26838;SDS011;40088;51.214;6.786;2023-03-01T23:37:21;4.97;;;4.13;;
26838;SDS011;40088;51.214;6.786;2023-03-01T23:47:30;5.22;;;3.80;;
26838;SDS011;40088;51.214;6.786;2023-03-01T23:57:41;5.22;;;4.28;;
